Ashley, North Dakota
Current Conditions -  °F | °C
As of 10:15 PM on Friday 24 Oct 2014 (Local Time) from K7L2 Reporting Station
Few Clouds Few Clouds  
Wind Chill:   Ceiling: Unl
Heat Index:   Visibility: 10mi
Dew Point:   Wind: 8mph
Humidity: 71%   Direction: 260°W
Pressure: 30.04"   Gusts: NA
Location:  46.03°N, 99.37°W
Report Text: K7L2 250315Z AUTO 26007KT 10SM FEW090 FEW110 07/02 A3004 RMK AO2 PWINO PNO
Loading
Personal Weather Stations






























Interactive Weather Map
Tropical Storm Tracking
New forecast layout! Learn more

10-Day Weather Forecast

Advertisements
Track Severe Weather on mobile